Terminal Aerodrome Forecast
Issued by NWS

Home | Current Version | Previous Version | Text Only | Print | Product List | Glossary On
Versions: 1 2 3 4 5 6 7 8 9 10 11 12 13 14
000
FTUS41 KAKQ 281700
TAFPHF
TAF
KPHF 281733Z 2818/2918 27014G22KT P6SM SCT070
     FM282300 29008KT P6SM SCT250
     FM290100 31006KT P6SM SKC
     FM290500 35007KT P6SM SKC
     FM291500 36008KT P6SM SCT040=

USA.gov is the U.S. government's official web portal to all federal, state and local government web resources and services.